createdAt,value
2017-12-20T00:01:26.446Z,22.97
2017-12-20T00:03:54.060Z,23.03
2017-12-20T00:06:21.586Z,21.77
2017-12-20T00:08:49.824Z,22.83
2017-12-20T00:11:17.319Z,23.93
2017-12-20T00:13:45.550Z,22.80
2017-12-20T00:16:13.021Z,23.23
2017-12-20T00:18:40.670Z,24.93
2017-12-20T00:21:08.301Z,23.37
2017-12-20T00:23:35.784Z,24.17
2017-12-20T00:26:03.301Z,23.20
2017-12-20T00:28:30.801Z,23.67
2017-12-20T00:30:58.298Z,26.27
2017-12-20T00:33:26.546Z,24.43
2017-12-20T00:35:55.533Z,24.50
2017-12-20T00:38:23.011Z,24.23
2017-12-20T00:40:51.260Z,24.00
2017-12-20T00:43:18.741Z,24.00
2017-12-20T00:45:47.107Z,23.17
2017-12-20T00:48:14.574Z,23.10
2017-12-20T00:50:42.846Z,24.70
2017-12-20T00:53:10.317Z,23.70
2017-12-20T00:55:38.568Z,24.27
2017-12-20T00:58:06.033Z,23.33
2017-12-20T01:00:33.688Z,23.87
2017-12-20T01:03:01.157Z,22.53
2017-12-20T01:05:29.493Z,25.40
2017-12-20T01:07:57.678Z,23.73
2017-12-20T01:10:25.141Z,25.27
2017-12-20T01:12:52.613Z,26.37
2017-12-20T01:15:20.086Z,24.80
2017-12-20T01:17:48.350Z,25.80
2017-12-20T01:20:15.820Z,27.50
2017-12-20T01:22:44.064Z,25.73
2017-12-20T01:25:11.707Z,26.00
2017-12-20T01:27:39.162Z,25.40
2017-12-20T01:30:06.641Z,24.20
2017-12-20T01:32:34.123Z,25.93
2017-12-20T01:35:02.369Z,25.77
2017-12-20T01:37:29.840Z,27.20
2017-12-20T01:39:58.113Z,27.87
2017-12-20T01:42:25.584Z,29.40
2017-12-20T01:44:53.841Z,27.13
2017-12-20T01:47:21.318Z,27.27
2017-12-20T01:49:49.542Z,25.50
2017-12-20T01:52:17.157Z,27.17
2017-12-20T01:54:45.401Z,26.30
2017-12-20T01:57:12.901Z,27.50
2017-12-20T01:59:40.364Z,28.10
2017-12-20T02:02:07.851Z,26.90
2017-12-20T02:04:35.309Z,25.97
2017-12-20T02:07:02.793Z,26.67
2017-12-20T02:09:30.257Z,27.63
2017-12-20T02:11:57.734Z,25.73
2017-12-20T02:14:26.096Z,27.20
2017-12-20T02:16:53.564Z,27.57
2017-12-20T02:19:21.833Z,25.00
2017-12-20T02:21:50.064Z,27.73
2017-12-20T02:24:17.633Z,26.10
2017-12-20T02:26:45.198Z,25.87
2017-12-20T02:29:12.801Z,28.60
2017-12-20T02:31:41.062Z,26.53
2017-12-20T02:34:08.522Z,27.90
2017-12-20T02:36:36.763Z,27.57
2017-12-20T02:39:05.193Z,27.27
2017-12-20T02:41:32.659Z,27.70
2017-12-20T02:44:00.130Z,28.77
2017-12-20T02:46:27.614Z,24.80
2017-12-20T02:48:55.094Z,27.67
2017-12-20T02:51:22.558Z,28.70
2017-12-20T02:53:50.781Z,27.87
2017-12-20T02:56:18.279Z,27.07
2017-12-20T02:58:45.818Z,27.17
2017-12-20T03:01:13.320Z,26.83
2017-12-20T03:03:41.641Z,25.40
2017-12-20T03:06:09.105Z,27.43
2017-12-20T03:08:36.577Z,26.87
2017-12-20T03:11:04.815Z,28.57
2017-12-20T03:13:32.277Z,27.00
2017-12-20T03:15:59.814Z,28.57
2017-12-20T03:18:27.380Z,26.57
2017-12-20T03:20:54.946Z,25.70
2017-12-20T03:23:22.406Z,27.43
2017-12-20T03:25:49.871Z,28.10
2017-12-20T03:28:17.381Z,30.13
2017-12-20T03:30:44.922Z,27.40
2017-12-20T03:33:12.388Z,27.30
2017-12-20T03:35:39.866Z,26.43
2017-12-20T03:38:08.110Z,28.00
2017-12-20T03:40:35.566Z,26.93
2017-12-20T03:43:03.190Z,28.57
2017-12-20T03:45:30.664Z,26.77
2017-12-20T03:47:58.134Z,28.20
2017-12-20T03:50:25.601Z,27.87
2017-12-20T03:52:53.089Z,25.83
2017-12-20T03:55:20.585Z,28.23
2017-12-20T03:57:48.056Z,27.70
2017-12-20T04:00:15.521Z,26.30
2017-12-20T04:02:43.063Z,28.47
2017-12-20T04:05:10.566Z,28.83
2017-12-20T04:07:38.792Z,28.13
2017-12-20T04:10:06.298Z,26.83
2017-12-20T04:12:34.534Z,28.07
2017-12-20T04:15:02.214Z,26.93
2017-12-20T04:17:29.681Z,29.47
2017-12-20T04:19:57.915Z,28.30
2017-12-20T04:22:25.396Z,28.87
2017-12-20T04:24:52.860Z,26.67
2017-12-20T04:27:22.058Z,26.40
2017-12-20T04:29:49.582Z,28.57
2017-12-20T04:32:17.125Z,27.93
2017-12-20T04:34:44.813Z,27.70
2017-12-20T04:37:12.302Z,27.87
2017-12-20T04:39:39.803Z,29.10
2017-12-20T04:42:07.282Z,27.90
2017-12-20T04:44:34.783Z,27.27
2017-12-20T04:47:03.016Z,30.53
2017-12-20T04:49:30.554Z,29.60
2017-12-20T04:51:58.125Z,29.50
2017-12-20T04:54:25.637Z,28.57
2017-12-20T04:56:54.079Z,28.73
2017-12-20T04:59:21.556Z,28.80
2017-12-20T05:01:49.032Z,26.90
2017-12-20T05:04:17.790Z,30.00
2017-12-20T05:06:45.318Z,29.27
2017-12-20T05:09:12.841Z,29.00
2017-12-20T05:11:41.117Z,30.00
2017-12-20T05:14:08.595Z,30.03
2017-12-20T05:16:36.083Z,29.50
2017-12-20T05:19:03.567Z,28.97
2017-12-20T05:21:31.797Z,29.07
2017-12-20T05:23:59.290Z,30.43
2017-12-20T05:26:26.838Z,28.70
2017-12-20T05:28:54.317Z,27.80
2017-12-20T05:31:22.554Z,28.83
2017-12-20T05:33:50.049Z,30.97
2017-12-20T05:36:18.329Z,29.80
2017-12-20T05:38:46.569Z,29.77
2017-12-20T05:41:14.040Z,31.03
2017-12-20T05:43:41.520Z,28.47
2017-12-20T05:46:09.884Z,30.53
2017-12-20T05:48:37.353Z,28.27
2017-12-20T05:51:05.620Z,30.73
2017-12-20T05:53:33.082Z,28.27
2017-12-20T05:56:01.330Z,30.90
2017-12-20T05:58:28.798Z,27.47
2017-12-20T06:00:56.351Z,29.37
2017-12-20T06:03:23.836Z,28.70
2017-12-20T06:05:52.122Z,28.80
2017-12-20T06:08:20.357Z,30.50
2017-12-20T06:10:47.841Z,28.27
2017-12-20T06:13:16.082Z,26.37
2017-12-20T06:15:43.545Z,26.10
2017-12-20T06:18:11.020Z,28.37
2017-12-20T06:20:38.493Z,28.47
2017-12-20T06:23:06.736Z,28.93
2017-12-20T06:25:34.237Z,27.00
2017-12-20T06:28:02.419Z,27.07
2017-12-20T06:30:29.909Z,27.67
2017-12-20T06:32:57.407Z,27.33
2017-12-20T06:35:25.652Z,28.70
2017-12-20T06:37:53.125Z,26.10
2017-12-20T06:40:20.603Z,27.20
2017-12-20T06:42:48.832Z,26.27
2017-12-20T06:45:16.317Z,27.03
2017-12-20T06:47:43.778Z,26.73
2017-12-20T06:50:12.015Z,28.00
2017-12-20T06:52:39.569Z,26.77
2017-12-20T06:55:07.047Z,28.80
2017-12-20T06:57:34.521Z,27.53
2017-12-20T07:00:02.002Z,27.10
2017-12-20T07:02:30.219Z,26.73
2017-12-20T07:04:57.695Z,26.57
2017-12-20T07:07:25.170Z,27.83
2017-12-20T07:09:52.876Z,26.57
2017-12-20T07:12:20.344Z,26.30
2017-12-20T07:14:47.992Z,28.73
2017-12-20T07:17:15.576Z,28.50
2017-12-20T07:19:43.044Z,26.37
2017-12-20T07:22:10.521Z,26.53
2017-12-20T07:24:39.283Z,26.57
2017-12-20T07:27:06.758Z,25.50
2017-12-20T07:29:34.260Z,26.57
2017-12-20T07:32:01.724Z,28.23
2017-12-20T07:34:29.209Z,28.10
2017-12-20T07:36:56.673Z,28.67
2017-12-20T07:39:24.141Z,27.80
2017-12-20T07:41:51.602Z,27.10
2017-12-20T07:44:19.083Z,29.43
2017-12-20T07:46:47.312Z,28.63
2017-12-20T07:49:14.788Z,28.93
2017-12-20T07:51:42.248Z,32.33
2017-12-20T07:54:09.726Z,30.03
2017-12-20T07:56:38.082Z,31.80
2017-12-20T07:59:05.594Z,30.20
2017-12-20T08:01:33.123Z,28.77
2017-12-20T08:04:01.459Z,30.43
2017-12-20T08:06:28.933Z,32.23
2017-12-20T08:08:56.396Z,30.53
2017-12-20T08:11:23.869Z,31.70
2017-12-20T08:13:52.104Z,28.43
2017-12-20T08:16:19.573Z,31.43
2017-12-20T08:18:47.037Z,29.63
2017-12-20T08:21:14.522Z,30.20
2017-12-20T08:23:42.004Z,29.17
2017-12-20T08:26:09.478Z,29.50
2017-12-20T08:28:36.972Z,29.67
2017-12-20T08:31:05.351Z,28.77
2017-12-20T08:33:33.584Z,32.17
2017-12-20T08:36:01.055Z,30.40
2017-12-20T08:38:28.526Z,31.40
2017-12-20T08:40:55.990Z,31.43
2017-12-20T08:43:24.246Z,30.77
2017-12-20T08:45:51.805Z,32.90
2017-12-20T08:48:20.898Z,33.47
2017-12-20T08:50:48.365Z,35.00
2017-12-20T08:53:15.853Z,32.77
2017-12-20T08:55:44.089Z,34.57
2017-12-20T08:58:11.619Z,31.63
2017-12-20T09:00:39.177Z,32.23
2017-12-20T09:03:06.680Z,32.63
2017-12-20T09:05:34.157Z,34.50
2017-12-20T09:08:02.391Z,32.60
2017-12-20T09:10:29.875Z,32.93
2017-12-20T09:12:57.333Z,34.13
2017-12-20T09:15:25.581Z,34.30
2017-12-20T09:17:53.061Z,34.73
2017-12-20T09:20:21.299Z,32.13
2017-12-20T09:22:48.785Z,35.30
2017-12-20T09:25:16.261Z,33.37
2017-12-20T09:27:44.515Z,32.67
2017-12-20T09:30:11.982Z,34.40
2017-12-20T09:32:39.475Z,34.40
2017-12-20T09:35:06.982Z,34.30
2017-12-20T09:37:34.510Z,34.93
2017-12-20T09:40:01.973Z,35.90
2017-12-20T09:42:29.452Z,33.57
2017-12-20T09:44:56.923Z,34.67
2017-12-20T09:47:24.474Z,35.53
2017-12-20T09:49:53.492Z,35.90
2017-12-20T09:52:20.995Z,38.37
2017-12-20T09:54:48.494Z,34.20
2017-12-20T09:57:15.972Z,35.60
2017-12-20T09:59:44.216Z,36.30
2017-12-20T10:02:11.691Z,36.20
2017-12-20T10:04:39.199Z,34.50
2017-12-20T10:07:06.756Z,34.70
2017-12-20T10:09:34.244Z,39.17
2017-12-20T10:12:01.713Z,35.13
2017-12-20T10:14:29.955Z,35.40
2017-12-20T10:16:57.433Z,37.83
2017-12-20T10:19:25.005Z,36.33
2017-12-20T10:21:52.522Z,37.57
2017-12-20T10:24:19.986Z,37.57
2017-12-20T10:26:47.473Z,38.53
2017-12-20T10:29:15.561Z,37.30
2017-12-20T10:31:43.808Z,36.87
2017-12-20T10:34:11.288Z,36.50
2017-12-20T10:36:39.547Z,37.60
2017-12-20T10:39:07.025Z,38.47
2017-12-20T10:41:35.299Z,36.07
2017-12-20T10:44:03.572Z,35.43
2017-12-20T10:46:31.805Z,35.70
2017-12-20T10:48:59.285Z,37.03
2017-12-20T10:51:26.750Z,36.40
2017-12-20T10:53:54.240Z,36.67
2017-12-20T10:56:21.768Z,36.50
2017-12-20T10:58:49.332Z,36.40
2017-12-20T11:01:16.789Z,34.50
2017-12-20T11:03:45.057Z,33.47
2017-12-20T11:06:12.519Z,35.30
2017-12-20T11:08:40.861Z,35.90
2017-12-20T11:11:08.537Z,36.90
2017-12-20T11:13:36.001Z,33.57
2017-12-20T11:16:03.543Z,35.43
2017-12-20T11:18:31.083Z,34.70
2017-12-20T11:20:58.580Z,33.93
2017-12-20T11:23:26.037Z,34.73
2017-12-20T11:25:53.517Z,35.37
2017-12-20T11:28:21.753Z,37.53
2017-12-20T11:30:49.441Z,34.50
2017-12-20T11:33:18.134Z,35.37
2017-12-20T11:35:46.370Z,34.03
2017-12-20T11:38:13.860Z,34.67
2017-12-20T11:40:42.112Z,34.37
2017-12-20T11:43:09.585Z,33.93
2017-12-20T11:45:37.044Z,32.77
2017-12-20T11:48:05.392Z,32.63
2017-12-20T11:50:32.861Z,33.23
2017-12-20T11:53:01.207Z,35.57
2017-12-20T11:55:28.684Z,35.27
2017-12-20T11:57:57.102Z,36.23
2017-12-20T12:00:25.353Z,33.07
2017-12-20T12:02:52.844Z,34.20
2017-12-20T12:05:20.332Z,37.17
2017-12-20T12:07:48.436Z,36.53
2017-12-20T12:10:15.918Z,34.70
2017-12-20T12:12:44.185Z,32.10
2017-12-20T12:15:11.648Z,31.90
2017-12-20T12:17:39.899Z,32.37
2017-12-20T12:20:07.385Z,33.40
2017-12-20T12:22:35.624Z,31.63
2017-12-20T12:25:03.109Z,31.20
2017-12-20T12:27:31.452Z,29.80
2017-12-20T12:29:59.061Z,28.60
2017-12-20T12:32:27.318Z,28.27
2017-12-20T12:34:54.989Z,30.63
2017-12-20T12:37:23.235Z,30.87
2017-12-20T12:39:50.711Z,29.97
2017-12-20T12:42:18.173Z,31.40
2017-12-20T12:44:46.482Z,32.50
2017-12-20T12:47:14.009Z,33.33
2017-12-20T12:49:42.244Z,32.30
2017-12-20T12:52:09.816Z,31.00
2017-12-20T12:54:37.309Z,30.17
2017-12-20T12:57:05.538Z,29.93
2017-12-20T12:59:33.079Z,31.07
2017-12-20T13:02:00.561Z,32.67
2017-12-20T13:04:28.028Z,31.20
2017-12-20T13:06:55.499Z,32.30
2017-12-20T13:09:23.732Z,31.80
2017-12-20T13:11:51.205Z,31.77
2017-12-20T13:14:18.663Z,31.40
2017-12-20T13:16:46.140Z,31.00
2017-12-20T13:19:13.648Z,30.27
2017-12-20T13:21:41.137Z,30.20
2017-12-20T13:24:08.608Z,28.00
2017-12-20T13:26:36.182Z,31.27
2017-12-20T13:29:04.418Z,30.60
2017-12-20T13:31:31.883Z,27.73
2017-12-20T13:33:59.372Z,27.03
2017-12-20T13:36:27.601Z,28.47
2017-12-20T13:38:55.086Z,25.90
2017-12-20T13:41:22.572Z,25.50
2017-12-20T13:43:50.816Z,26.67
2017-12-20T13:46:18.282Z,27.20
2017-12-20T13:48:45.938Z,27.03
2017-12-20T13:51:13.514Z,27.67
2017-12-20T13:53:41.770Z,25.90
2017-12-20T13:56:10.168Z,27.50
2017-12-20T13:58:38.396Z,23.80
2017-12-20T14:01:05.917Z,24.70
2017-12-20T14:03:33.397Z,24.10
2017-12-20T14:06:01.721Z,24.20
2017-12-20T14:08:29.189Z,23.57
2017-12-20T14:10:57.435Z,23.43
2017-12-20T14:13:24.914Z,24.27
2017-12-20T14:15:52.878Z,23.23
2017-12-20T14:18:20.350Z,24.60
2017-12-20T14:20:48.591Z,20.60
2017-12-20T14:23:16.067Z,20.67
2017-12-20T14:25:43.732Z,20.10
2017-12-20T14:28:11.194Z,20.10
2017-12-20T14:30:39.534Z,20.30
2017-12-20T14:33:07.118Z,18.73
2017-12-20T14:35:34.589Z,18.43
2017-12-20T14:38:02.962Z,22.33
2017-12-20T14:40:30.431Z,20.43
2017-12-20T14:42:58.789Z,21.80
2017-12-20T14:45:27.027Z,20.30
2017-12-20T14:47:55.329Z,20.93
2017-12-20T14:50:22.795Z,21.20
2017-12-20T14:52:50.277Z,21.63
2017-12-20T14:55:18.509Z,19.30
2017-12-20T14:57:45.989Z,18.17
2017-12-20T15:00:13.456Z,19.10
2017-12-20T15:02:41.427Z,19.27
2017-12-20T15:05:09.660Z,18.70
2017-12-20T15:07:37.148Z,17.50
2017-12-20T15:10:04.597Z,17.87
2017-12-20T15:12:32.083Z,19.07
2017-12-20T15:15:00.320Z,18.70
2017-12-20T15:17:27.849Z,18.33
2017-12-20T15:19:55.372Z,18.37
2017-12-20T15:22:23.605Z,20.43
2017-12-20T15:24:51.091Z,16.37
2017-12-20T15:27:19.356Z,16.77
2017-12-20T15:29:46.823Z,17.43
2017-12-20T15:32:15.070Z,19.37
2017-12-20T15:34:42.545Z,17.07
2017-12-20T15:37:10.015Z,16.40
2017-12-20T15:39:37.494Z,16.70
2017-12-20T15:42:04.982Z,16.90
2017-12-20T15:44:32.453Z,19.50
2017-12-20T15:47:00.105Z,17.37
2017-12-20T15:49:27.582Z,18.77
2017-12-20T15:51:55.310Z,19.73
2017-12-20T15:54:22.766Z,18.50
2017-12-20T15:56:50.578Z,17.27
2017-12-20T15:59:18.114Z,17.60
2017-12-20T16:01:46.290Z,18.33
2017-12-20T16:04:13.781Z,16.40
2017-12-20T16:06:42.023Z,16.60
2017-12-20T16:09:09.511Z,15.03
2017-12-20T16:11:37.784Z,16.03
2017-12-20T16:14:05.319Z,17.10
2017-12-20T16:16:32.818Z,16.30
2017-12-20T16:19:00.299Z,15.33
2017-12-20T16:21:28.281Z,17.97
2017-12-20T16:23:55.769Z,18.70
2017-12-20T16:26:23.258Z,19.00
2017-12-20T16:28:50.737Z,15.83
2017-12-20T16:31:18.212Z,16.20
2017-12-20T16:33:45.692Z,16.97
2017-12-20T16:36:13.157Z,18.20
2017-12-20T16:38:41.507Z,17.03
2017-12-20T16:41:08.988Z,17.60
2017-12-20T16:43:36.449Z,17.33
2017-12-20T16:46:04.008Z,17.77
2017-12-20T16:48:31.489Z,17.77
2017-12-20T16:50:59.996Z,18.90
2017-12-20T16:53:39.548Z,17.60
2017-12-20T16:56:07.088Z,19.37
2017-12-20T16:58:34.667Z,18.00
2017-12-20T17:01:02.125Z,19.77
2017-12-20T17:03:29.619Z,17.37
2017-12-20T17:05:57.085Z,16.87
2017-12-20T17:08:25.311Z,18.23
2017-12-20T17:10:52.790Z,17.60
2017-12-20T17:13:20.277Z,18.50
2017-12-20T17:15:48.532Z,17.53
2017-12-20T17:18:15.999Z,17.83
2017-12-20T17:20:43.470Z,16.63
2017-12-20T17:23:11.713Z,17.53
2017-12-20T17:25:39.173Z,16.40
2017-12-20T17:28:06.653Z,17.70
2017-12-20T17:30:35.532Z,17.43
2017-12-20T17:33:03.005Z,16.00
2017-12-20T17:35:31.254Z,18.00
2017-12-20T17:37:59.513Z,17.37
2017-12-20T17:40:27.093Z,16.50
2017-12-20T17:42:54.575Z,16.30
2017-12-20T17:45:23.577Z,15.90
2017-12-20T17:47:51.074Z,15.50
2017-12-20T17:50:18.557Z,15.87
2017-12-20T17:52:46.092Z,15.87
2017-12-20T17:55:13.571Z,16.23
2017-12-20T17:57:41.050Z,19.03
2017-12-20T18:00:09.350Z,17.27
2017-12-20T18:02:36.832Z,18.50
2017-12-20T18:05:04.426Z,16.33
2017-12-20T18:07:31.907Z,17.60
2017-12-20T18:10:00.163Z,16.87
2017-12-20T18:12:27.641Z,15.80
2017-12-20T18:14:55.886Z,17.00
2017-12-20T18:17:23.369Z,18.73
2017-12-20T18:19:51.599Z,16.47
2017-12-20T18:22:19.080Z,16.53
2017-12-20T18:24:46.619Z,16.70
2017-12-20T18:27:14.100Z,16.83
2017-12-20T18:29:41.634Z,16.73
2017-12-20T18:32:09.120Z,17.30
2017-12-20T18:34:36.599Z,17.97
2017-12-20T18:37:04.833Z,17.93
2017-12-20T18:39:32.305Z,18.90
2017-12-20T18:41:59.773Z,19.60
2017-12-20T18:44:28.017Z,16.87
2017-12-20T18:46:55.597Z,18.13
2017-12-20T18:49:23.841Z,19.07
2017-12-20T18:51:51.308Z,20.07
2017-12-20T18:54:18.786Z,18.07
2017-12-20T18:56:46.267Z,19.10
2017-12-20T18:59:13.736Z,20.00
2017-12-20T19:01:41.203Z,20.90
2017-12-20T19:04:08.677Z,20.67
2017-12-20T19:06:36.249Z,19.47
2017-12-20T19:09:03.737Z,21.67
2017-12-20T19:11:31.212Z,20.87
2017-12-20T19:13:58.687Z,21.83
2017-12-20T19:16:26.163Z,21.20
2017-12-20T19:18:53.630Z,21.00
2017-12-20T19:21:25.224Z,20.90
2017-12-20T19:23:53.518Z,20.07
2017-12-20T19:26:21.013Z,20.63
2017-12-20T19:28:48.483Z,20.63
2017-12-20T19:31:15.971Z,20.00
2017-12-20T19:33:44.208Z,21.40
2017-12-20T19:36:11.678Z,20.83
2017-12-20T19:38:39.168Z,21.37
2017-12-20T19:41:07.405Z,20.97
2017-12-20T19:43:34.939Z,21.00
2017-12-20T19:46:02.495Z,20.43
2017-12-20T19:48:29.972Z,20.77
2017-12-20T19:50:58.198Z,21.20
2017-12-20T19:53:25.678Z,20.50
2017-12-20T19:55:53.239Z,21.73
2017-12-20T19:58:20.811Z,20.63
2017-12-20T20:00:48.302Z,21.93
2017-12-20T20:03:15.808Z,21.60
2017-12-20T20:05:43.288Z,22.13
2017-12-20T20:08:10.928Z,20.40
2017-12-20T20:10:38.410Z,20.73
2017-12-20T20:13:06.051Z,21.23
2017-12-20T20:15:33.620Z,17.90
2017-12-20T20:18:01.254Z,19.60
2017-12-20T20:20:28.887Z,21.20
2017-12-20T20:22:57.150Z,21.00
2017-12-20T20:25:24.628Z,20.00
2017-12-20T20:27:52.900Z,20.20
2017-12-20T20:30:21.144Z,19.80
2017-12-20T20:32:48.681Z,19.90
2017-12-20T20:35:16.147Z,20.07
2017-12-20T20:37:43.624Z,21.57
2017-12-20T20:40:11.105Z,19.27
2017-12-20T20:42:39.401Z,19.67
2017-12-20T20:45:06.835Z,19.97
2017-12-20T20:47:35.223Z,20.40
2017-12-20T20:50:03.466Z,19.27
2017-12-20T20:52:30.954Z,17.90
2017-12-20T20:54:58.464Z,18.20
2017-12-20T20:57:25.944Z,17.50
2017-12-20T20:59:53.420Z,16.97
2017-12-20T21:02:21.698Z,17.67
2017-12-20T21:04:49.971Z,17.77
2017-12-20T21:07:18.226Z,16.77
2017-12-20T21:09:45.706Z,15.47
2017-12-20T21:12:13.955Z,15.07
2017-12-20T21:14:41.423Z,16.53
2017-12-20T21:17:09.654Z,16.40
2017-12-20T21:19:37.152Z,15.17
2017-12-20T21:22:04.698Z,14.27
2017-12-20T21:24:33.677Z,15.70
2017-12-20T21:27:01.166Z,15.80
2017-12-20T21:29:28.637Z,15.97
2017-12-20T21:31:56.881Z,15.90
2017-12-20T21:34:24.404Z,15.30
2017-12-20T21:36:51.906Z,14.97
2017-12-20T21:39:19.376Z,14.47
2017-12-20T21:41:47.618Z,16.40
2017-12-20T21:44:15.081Z,16.87
2017-12-20T21:46:42.570Z,15.57
2017-12-20T21:49:10.853Z,15.07
2017-12-20T21:51:38.488Z,17.53
2017-12-20T21:54:06.134Z,17.50
2017-12-20T21:56:33.675Z,16.40
2017-12-20T21:59:01.362Z,15.00
2017-12-20T22:01:28.864Z,17.07
2017-12-20T22:03:56.349Z,16.93
2017-12-20T22:06:23.837Z,16.87
2017-12-20T22:08:51.320Z,15.37
2017-12-20T22:11:19.570Z,17.90
2017-12-20T22:13:47.056Z,17.40
2017-12-20T22:16:15.494Z,18.13
2017-12-20T22:18:43.234Z,17.03
2017-12-20T22:21:10.708Z,16.33
2017-12-20T22:23:38.180Z,16.80
2017-12-20T22:26:05.654Z,16.57
2017-12-20T22:28:33.899Z,15.73
2017-12-20T22:31:01.353Z,16.53
2017-12-20T22:33:28.894Z,16.87
2017-12-20T22:35:56.378Z,16.23
2017-12-20T22:38:23.853Z,14.30
2017-12-20T22:40:52.129Z,15.60
2017-12-20T22:43:20.375Z,15.77
2017-12-20T22:45:47.850Z,15.10
2017-12-20T22:48:15.331Z,15.23
2017-12-20T22:50:43.665Z,14.40
2017-12-20T22:53:11.178Z,14.47
2017-12-20T22:55:38.906Z,14.03
2017-12-20T22:58:06.357Z,14.17
2017-12-20T23:00:33.980Z,13.73
2017-12-20T23:03:01.590Z,13.80
2017-12-20T23:05:29.836Z,14.67
2017-12-20T23:07:57.309Z,13.73
2017-12-20T23:10:24.795Z,12.27
2017-12-20T23:12:53.049Z,12.43
2017-12-20T23:15:20.661Z,13.47
2017-12-20T23:17:48.145Z,12.53
2017-12-20T23:20:15.705Z,13.30
2017-12-20T23:22:43.190Z,11.77
2017-12-20T23:25:10.659Z,12.50
2017-12-20T23:27:38.906Z,12.87
2017-12-20T23:30:06.376Z,12.10
2017-12-20T23:32:33.858Z,12.43
2017-12-20T23:35:02.221Z,11.30
2017-12-20T23:37:30.466Z,11.53
2017-12-20T23:39:57.943Z,11.83
2017-12-20T23:42:26.166Z,12.03
2017-12-20T23:44:53.647Z,11.60
2017-12-20T23:47:21.108Z,11.60
2017-12-20T23:49:48.649Z,11.67
2017-12-20T23:52:16.133Z,11.30
2017-12-20T23:54:43.612Z,10.90
2017-12-20T23:57:11.848Z,11.17
2017-12-20T23:59:39.332Z,12.00
